Time;durP1;ratioP1;P1;durP2;ratioP2;P2;SDS_P1;SDS_P2;PMS_P1;PMS_P2;Temp;Humidity;BMP_temperature;BMP_pressure;BME280_temperature;BME280_humidity;BME280_pressure;Samples;Min_cycle;Max_cycle;Signal;HPM_P1;HPM_P2
2021/09/09 00:00:16;;;;;;;8.63;5.28;;;18.10;99.90;;;;;;5052998;28;20021;-87
2021/09/09 00:02:42;;;;;;;14.40;5.60;;;17.90;99.90;;;;;;5051663;28;20025;-87
2021/09/09 00:05:09;;;;;;;12.07;5.25;;;17.90;99.90;;;;;;5051695;28;20489;-87
2021/09/09 00:07:35;;;;;;;12.00;5.93;;;17.80;99.90;;;;;;5052886;28;20029;-87
2021/09/09 00:10:04;;;;;;;9.85;5.63;;;17.70;99.90;;;;;;5053160;28;20091;-87
2021/09/09 00:12:29;;;;;;;12.32;5.90;;;17.50;99.90;;;;;;5052010;28;20055;-87
2021/09/09 00:14:55;;;;;;;8.63;5.53;;;17.40;99.90;;;;;;5051550;28;20025;-87
2021/09/09 00:17:21;;;;;;;7.13;5.35;;;17.60;99.90;;;;;;5051549;28;20496;-86
2021/09/09 00:19:46;;;;;;;13.13;5.82;;;17.40;99.90;;;;;;5051542;28;20184;-87
2021/09/09 00:22:12;;;;;;;12.70;5.45;;;17.40;99.90;;;;;;5051473;28;20021;-87
2021/09/09 00:24:38;;;;;;;10.38;6.10;;;17.50;99.90;;;;;;5051483;28;20029;-87
2021/09/09 00:27:04;;;;;;;8.88;5.45;;;17.60;99.90;;;;;;5052797;28;20082;-87
2021/09/09 00:29:30;;;;;;;8.68;5.53;;;17.50;99.90;;;;;;5051381;28;20100;-87
2021/09/09 00:31:55;;;;;;;9.98;5.63;;;17.60;99.90;;;;;;5052728;28;20037;-87
2021/09/09 00:34:21;;;;;;;11.40;4.97;;;17.60;99.90;;;;;;5052643;28;20025;-87
2021/09/09 00:36:47;;;;;;;7.15;5.30;;;17.50;99.90;;;;;;5051292;28;20056;-87
2021/09/09 00:39:13;;;;;;;10.48;5.93;;;17.50;99.90;;;;;;5053058;28;20040;-87
2021/09/09 00:41:38;;;;;;;9.13;5.97;;;17.50;99.90;;;;;;5056036;28;20036;-87
2021/09/09 00:44:04;;;;;;;11.60;5.88;;;17.40;99.90;;;;;;5056390;28;20388;-87
2021/09/09 00:46:33;;;;;;;8.07;5.40;;;17.50;99.90;;;;;;5055150;28;20025;-86
2021/09/09 00:48:59;;;;;;;9.48;6.10;;;17.60;99.90;;;;;;5056292;28;20366;-87
2021/09/09 00:51:25;;;;;;;9.07;5.25;;;17.50;99.90;;;;;;5055007;28;20032;-87
2021/09/09 00:53:51;;;;;;;12.73;6.00;;;17.60;99.90;;;;;;5054711;28;20057;-87
2021/09/09 00:56:19;;;;;;;10.00;5.75;;;17.60;99.90;;;;;;5056134;28;20385;-87
2021/09/09 00:58:45;;;;;;;10.05;6.40;;;17.40;99.90;;;;;;5055700;28;20469;-87
2021/09/09 01:01:11;;;;;;;9.13;5.88;;;17.40;99.90;;;;;;5054749;28;20079;-87
2021/09/09 01:03:37;;;;;;;7.90;5.28;;;17.50;99.90;;;;;;5054815;28;20025;-87
2021/09/09 01:06:03;;;;;;;15.32;6.38;;;17.50;99.90;;;;;;5054738;28;20025;-87
2021/09/09 01:08:29;;;;;;;8.45;5.78;;;17.40;99.90;;;;;;5054621;28;20128;-87
2021/09/09 01:10:55;;;;;;;8.30;5.63;;;17.40;99.90;;;;;;5054620;28;20396;-87
2021/09/09 01:13:20;;;;;;;9.38;5.93;;;17.50;99.90;;;;;;5054559;28;20029;-87
2021/09/09 01:15:46;;;;;;;9.38;5.40;;;17.50;99.90;;;;;;5054508;28;20028;-87
2021/09/09 01:18:14;;;;;;;8.38;5.57;;;17.60;99.90;;;;;;5054408;28;20080;-87
2021/09/09 01:20:41;;;;;;;9.57;5.55;;;17.70;99.90;;;;;;5054448;28;20036;-87
2021/09/09 01:23:07;;;;;;;9.93;5.65;;;17.60;99.90;;;;;;5055969;28;20515;-86
2021/09/09 01:25:33;;;;;;;10.75;5.90;;;17.20;99.90;;;;;;5054370;28;20400;-87
2021/09/09 01:27:59;;;;;;;10.27;6.03;;;17.10;99.90;;;;;;5054247;28;20025;-87
2021/09/09 01:30:25;;;;;;;10.75;5.68;;;17.10;99.90;;;;;;5055542;28;20028;-86
2021/09/09 01:32:51;;;;;;;10.18;5.80;;;17.10;99.90;;;;;;5054221;28;20082;-87
2021/09/09 01:35:17;;;;;;;8.57;5.93;;;17.10;99.90;;;;;;5054175;28;20017;-87
2021/09/09 01:37:43;;;;;;;11.00;5.47;;;17.20;99.90;;;;;;5055392;28;20029;-86
2021/09/09 01:40:09;;;;;;;9.88;5.80;;;17.20;99.90;;;;;;5054188;28;20021;-87
2021/09/09 01:42:35;;;;;;;8.10;6.15;;;17.00;99.90;;;;;;5054130;28;20504;-87
2021/09/09 01:45:01;;;;;;;11.43;5.90;;;17.00;99.90;;;;;;5055560;28;20117;-87
2021/09/09 01:47:26;;;;;;;7.65;5.70;;;17.00;99.90;;;;;;5055673;28;20546;-87
2021/09/09 01:49:52;;;;;;;8.98;5.53;;;17.10;99.90;;;;;;5054311;28;20025;-86
2021/09/09 01:52:18;;;;;;;14.77;6.07;;;17.10;99.90;;;;;;5052838;28;20029;-87
2021/09/09 01:54:44;;;;;;;9.25;5.72;;;17.00;99.90;;;;;;5017565;28;20500;-87
2021/09/09 01:57:10;;;;;;;9.52;5.70;;;16.90;99.90;;;;;;5035147;28;20060;-87
2021/09/09 01:59:35;;;;;;;9.70;6.10;;;17.00;99.90;;;;;;5017261;28;20025;-87
2021/09/09 02:02:01;;;;;;;8.43;5.72;;;16.80;99.90;;;;;;5017358;28;20473;-86
2021/09/09 02:04:29;;;;;;;10.95;5.03;;;16.70;99.90;;;;;;5034918;28;20029;-87
2021/09/09 02:06:55;;;;;;;7.97;5.78;;;16.70;99.90;;;;;;5034893;28;20075;-87
2021/09/09 02:09:21;;;;;;;11.70;5.85;;;16.70;99.90;;;;;;5017045;28;20489;-87
2021/09/09 02:11:47;;;;;;;10.35;5.72;;;16.80;99.90;;;;;;5017050;28;20032;-87
2021/09/09 02:14:12;;;;;;;13.30;6.15;;;16.70;99.90;;;;;;5034957;28;20469;-87
2021/09/09 02:16:38;;;;;;;7.32;5.65;;;16.70;99.90;;;;;;5034723;28;20018;-87
2021/09/09 02:19:04;;;;;;;8.30;5.82;;;16.80;99.90;;;;;;5016910;28;20029;-87
2021/09/09 02:21:29;;;;;;;12.57;5.70;;;16.90;99.90;;;;;;5016815;28;20032;-87
2021/09/09 02:23:55;;;;;;;8.48;5.13;;;17.00;99.90;;;;;;5034533;28;20022;-87
2021/09/09 02:26:21;;;;;;;8.68;5.70;;;17.20;99.90;;;;;;5016729;28;20076;-87
2021/09/09 02:28:47;;;;;;;9.85;6.15;;;17.20;99.90;;;;;;5016782;28;20036;-87
2021/09/09 02:31:12;;;;;;;10.32;5.65;;;17.10;99.90;;;;;;5016744;28;20060;-87
2021/09/09 02:33:39;;;;;;;8.32;5.57;;;17.00;99.90;;;;;;5016683;28;20483;-87
2021/09/09 02:36:04;;;;;;;9.88;5.43;;;17.00;99.90;;;;;;5016592;28;20048;-87
2021/09/09 02:38:30;;;;;;;9.57;5.80;;;17.00;99.90;;;;;;5016541;28;20511;-86
2021/09/09 02:40:56;;;;;;;11.02;5.28;;;17.10;99.90;;;;;;5016532;28;20021;-87
2021/09/09 02:43:22;;;;;;;10.07;5.82;;;17.20;99.90;;;;;;5034182;28;20025;-87
2021/09/09 02:45:48;;;;;;;7.85;5.38;;;17.20;99.90;;;;;;5017294;28;20025;-87
2021/09/09 02:48:13;;;;;;;10.15;5.68;;;17.20;99.90;;;;;;5016354;28;20060;-87
2021/09/09 02:50:39;;;;;;;9.32;5.65;;;17.00;99.90;;;;;;5016323;28;20477;-87
2021/09/09 02:53:05;;;;;;;10.02;5.80;;;17.00;99.90;;;;;;5027048;28;20056;-87
2021/09/09 02:55:31;;;;;;;11.57;6.18;;;17.00;99.90;;;;;;5052543;28;20027;-87
2021/09/09 02:57:57;;;;;;;8.75;5.80;;;16.90;99.90;;;;;;5052617;28;20021;-87
2021/09/09 03:00:22;;;;;;;12.32;5.88;;;16.90;99.90;;;;;;5052527;28;20027;-86
2021/09/09 03:02:48;;;;;;;9.05;6.15;;;17.10;99.90;;;;;;5052057;28;20492;-87
2021/09/09 03:05:14;;;;;;;11.57;5.90;;;17.10;99.90;;;;;;5052489;28;20550;-87
2021/09/09 03:07:40;;;;;;;11.35;6.68;;;17.10;99.90;;;;;;5053647;28;20021;-87
2021/09/09 03:10:06;;;;;;;9.23;5.82;;;17.10;99.90;;;;;;5052365;28;20459;-86
2021/09/09 03:12:33;;;;;;;9.30;5.57;;;17.20;99.90;;;;;;5052210;28;20025;-88
2021/09/09 03:14:58;;;;;;;8.48;6.15;;;17.40;99.90;;;;;;5052558;28;20047;-87
2021/09/09 03:17:24;;;;;;;9.02;5.88;;;17.50;99.90;;;;;;5052201;28;20025;-87
2021/09/09 03:19:50;;;;;;;8.85;5.55;;;17.70;99.90;;;;;;5052147;28;20117;-87
2021/09/09 03:22:16;;;;;;;7.78;5.60;;;18.00;99.90;;;;;;5052193;28;20029;-87
2021/09/09 03:24:41;;;;;;;13.73;5.75;;;18.10;99.90;;;;;;5052128;28;20488;-87
2021/09/09 03:27:07;;;;;;;7.55;6.00;;;18.10;99.90;;;;;;5052129;28;20025;-87
2021/09/09 03:29:33;;;;;;;6.93;6.18;;;18.20;99.90;;;;;;5053364;28;20021;-87
2021/09/09 03:31:58;;;;;;;9.35;5.85;;;18.20;99.90;;;;;;5051968;28;20032;-87
2021/09/09 03:34:24;;;;;;;6.97;5.55;;;18.10;99.90;;;;;;5051895;28;20025;-87
2021/09/09 03:36:50;;;;;;;8.13;5.72;;;18.00;99.90;;;;;;5051947;28;20108;-87
2021/09/09 03:39:16;;;;;;;11.60;5.93;;;18.00;99.90;;;;;;5052010;28;20017;-87
2021/09/09 03:41:42;;;;;;;8.35;6.22;;;18.00;99.90;;;;;;5053214;28;20469;-87
2021/09/09 03:44:09;;;;;;;9.38;5.85;;;18.00;99.90;;;;;;5051799;28;20031;-87
2021/09/09 03:46:34;;;;;;;9.40;5.68;;;17.90;99.90;;;;;;5051808;28;20036;-86
2021/09/09 03:49:00;;;;;;;7.47;5.90;;;18.00;99.90;;;;;;5051838;28;20025;-86
2021/09/09 03:51:26;;;;;;;9.48;6.32;;;17.90;99.90;;;;;;5051785;28;20059;-86
2021/09/09 03:53:51;;;;;;;15.75;6.28;;;17.70;99.90;;;;;;5039547;28;20485;-87
2021/09/09 03:56:17;;;;;;;8.02;5.93;;;17.50;99.90;;;;;;5015576;28;20481;-86
2021/09/09 03:58:43;;;;;;;8.68;5.50;;;17.50;99.90;;;;;;5016977;28;20513;-86
2021/09/09 04:01:08;;;;;;;9.68;5.68;;;17.30;99.90;;;;;;5016529;28;20022;-86
2021/09/09 04:03:34;;;;;;;8.80;5.93;;;17.30;99.90;;;;;;5015554;28;20161;-86
2021/09/09 04:06:00;;;;;;;7.15;5.90;;;17.30;99.90;;;;;;5015477;28;20116;-87
2021/09/09 04:08:25;;;;;;;10.88;5.80;;;17.30;99.90;;;;;;5033252;28;20025;-86
2021/09/09 04:10:51;;;;;;;10.23;6.03;;;17.20;99.90;;;;;;5033019;28;20512;-87
2021/09/09 04:13:17;;;;;;;8.00;5.70;;;17.20;99.90;;;;;;5032870;28;20147;-87
2021/09/09 04:15:42;;;;;;;10.00;6.10;;;17.20;99.90;;;;;;5017910;28;20425;-86
2021/09/09 04:18:08;;;;;;;10.70;5.60;;;17.20;99.90;;;;;;5019158;28;20022;-87
2021/09/09 04:20:34;;;;;;;10.23;6.78;;;17.30;99.90;;;;;;5019760;28;20022;-87
2021/09/09 04:23:00;;;;;;;9.30;6.25;;;17.50;99.90;;;;;;5019079;28;20025;-86
2021/09/09 04:25:25;;;;;;;11.32;5.43;;;17.50;99.90;;;;;;5019069;28;20029;-86
2021/09/09 04:27:51;;;;;;;8.02;6.10;;;17.50;99.90;;;;;;5019005;28;20485;-86
2021/09/09 04:30:17;;;;;;;7.93;5.88;;;17.40;99.90;;;;;;5036792;28;20021;-86
2021/09/09 04:32:42;;;;;;;12.23;6.05;;;17.30;99.90;;;;;;5018759;28;20029;-86
2021/09/09 04:35:09;;;;;;;10.43;5.88;;;17.40;99.90;;;;;;5018968;28;20113;-87
2021/09/09 04:37:36;;;;;;;10.85;5.80;;;17.40;99.90;;;;;;5018823;28;20116;-86
2021/09/09 04:40:03;;;;;;;9.50;6.30;;;17.40;99.90;;;;;;5036547;28;20022;-86
2021/09/09 04:42:28;;;;;;;11.00;6.55;;;17.40;99.90;;;;;;5018729;28;20021;-86
2021/09/09 04:44:54;;;;;;;8.48;5.95;;;17.40;99.90;;;;;;5036680;28;20036;-86
2021/09/09 04:47:20;;;;;;;6.65;5.80;;;17.40;99.90;;;;;;5018614;28;20030;-86
2021/09/09 04:49:45;;;;;;;9.75;6.95;;;17.40;99.90;;;;;;5018623;28;20393;-86
2021/09/09 04:52:11;;;;;;;10.00;6.15;;;17.30;99.90;;;;;;5036287;28;20149;-85
2021/09/09 04:54:37;;;;;;;9.63;6.20;;;17.20;99.90;;;;;;5036031;28;20046;-86
2021/09/09 04:57:03;;;;;;;9.75;5.68;;;17.20;99.90;;;;;;5018474;28;20028;-86
2021/09/09 04:59:28;;;;;;;11.05;6.00;;;16.80;99.90;;;;;;5018458;28;20025;-86
2021/09/09 05:01:54;;;;;;;13.98;6.35;;;16.60;99.90;;;;;;5036184;28;20469;-86
2021/09/09 05:04:20;;;;;;;9.77;5.80;;;16.40;99.90;;;;;;5018399;28;20026;-86
2021/09/09 05:06:46;;;;;;;8.85;5.53;;;16.60;99.90;;;;;;5018286;28;20035;-86
2021/09/09 05:09:12;;;;;;;8.63;6.28;;;16.80;99.90;;;;;;5018230;28;20029;-86
2021/09/09 05:11:38;;;;;;;9.65;6.10;;;16.70;99.90;;;;;;5036045;28;20100;-86
2021/09/09 05:14:03;;;;;;;12.20;6.00;;;16.80;99.90;;;;;;5018120;28;20124;-86
2021/09/09 05:16:29;;;;;;;10.13;5.85;;;16.90;99.90;;;;;;5018312;28;20021;-87
2021/09/09 05:18:55;;;;;;;8.13;5.55;;;16.90;99.90;;;;;;5018344;28;20120;-86
2021/09/09 05:21:21;;;;;;;10.82;5.63;;;17.20;99.90;;;;;;5018208;28;20025;-89
2021/09/09 05:23:47;;;;;;;6.82;5.55;;;17.40;99.90;;;;;;5018027;28;20045;-89
2021/09/09 05:26:12;;;;;;;8.63;5.68;;;17.50;99.90;;;;;;5017806;28;20116;-89
2021/09/09 05:28:38;;;;;;;13.00;6.20;;;17.70;99.90;;;;;;5017887;28;20048;-89
2021/09/09 05:31:04;;;;;;;11.50;6.05;;;17.70;99.90;;;;;;5018098;28;20029;-90
2021/09/09 05:33:30;;;;;;;8.32;5.82;;;17.90;99.90;;;;;;5017785;28;20074;-89
2021/09/09 05:35:55;;;;;;;9.50;6.07;;;17.80;99.90;;;;;;5018509;28;20121;-90
2021/09/09 05:38:21;;;;;;;9.13;5.72;;;17.80;99.90;;;;;;5017968;28;20026;-89
2021/09/09 05:40:49;;;;;;;10.35;5.80;;;17.90;99.90;;;;;;5035609;28;20021;-90
2021/09/09 05:43:16;;;;;;;11.63;6.00;;;17.80;99.90;;;;;;5017768;28;20442;-90
2021/09/09 05:45:42;;;;;;;12.05;6.20;;;17.90;99.90;;;;;;5017734;28;20068;-90
2021/09/09 05:48:08;;;;;;;7.88;6.10;;;17.90;99.90;;;;;;5018118;28;20635;-89
2021/09/09 05:50:33;;;;;;;7.35;5.82;;;17.90;99.90;;;;;;5035360;28;20029;-89
2021/09/09 05:52:59;;;;;;;9.68;6.30;;;18.00;99.90;;;;;;5026687;28;20493;-90
2021/09/09 05:55:25;;;;;;;8.25;6.35;;;17.90;99.90;;;;;;5054130;28;20026;-90
2021/09/09 05:57:51;;;;;;;10.85;5.97;;;17.80;99.90;;;;;;5053898;28;20021;-89
2021/09/09 06:00:17;;;;;;;11.23;5.70;;;17.80;99.90;;;;;;5053805;28;20025;-89
2021/09/09 06:02:45;;;;;;;12.57;6.10;;;17.80;99.90;;;;;;5053754;28;20113;-90
2021/09/09 06:05:13;;;;;;;7.50;5.57;;;17.80;99.90;;;;;;5054100;28;20033;-90
2021/09/09 06:07:39;;;;;;;9.90;5.78;;;17.80;99.90;;;;;;5055358;28;20021;-90
2021/09/09 06:10:05;;;;;;;10.02;5.88;;;17.80;99.90;;;;;;5056621;28;20029;-90
2021/09/09 06:12:31;;;;;;;13.23;6.03;;;17.90;99.90;;;;;;5057807;28;20548;-89
2021/09/09 06:14:57;;;;;;;13.32;6.95;;;17.90;99.90;;;;;;5055609;28;20052;-89
2021/09/09 06:17:22;;;;;;;9.13;5.80;;;18.00;99.90;;;;;;5053792;28;20021;-89
2021/09/09 06:19:48;;;;;;;10.25;6.45;;;17.80;99.90;;;;;;5053716;28;20025;-89
2021/09/09 06:22:14;;;;;;;10.95;6.07;;;17.70;99.90;;;;;;5055096;28;20052;-90
2021/09/09 06:24:40;;;;;;;12.48;6.63;;;17.70;99.90;;;;;;5054831;28;20064;-90
2021/09/09 06:27:06;;;;;;;8.00;5.90;;;17.80;99.90;;;;;;5053369;28;20056;-89
2021/09/09 06:29:32;;;;;;;10.15;5.85;;;18.00;99.90;;;;;;5053399;28;20126;-90
2021/09/09 06:31:58;;;;;;;18.70;7.00;;;18.30;99.90;;;;;;5053283;28;20086;-89
2021/09/09 06:34:24;;;;;;;9.30;5.93;;;18.30;99.90;;;;;;5054451;28;20159;-89
2021/09/09 06:36:49;;;;;;;10.80;6.57;;;18.40;99.90;;;;;;5054450;28;20024;-89
2021/09/09 06:39:17;;;;;;;7.55;5.88;;;18.60;99.90;;;;;;5052862;28;20021;-89
2021/09/09 06:41:46;;;;;;;13.55;6.03;;;18.80;99.90;;;;;;5053245;28;20025;-87
2021/09/09 06:44:13;;;;;;;11.18;6.10;;;18.90;99.90;;;;;;5053169;28;20040;-90
2021/09/09 06:46:39;;;;;;;11.85;6.32;;;19.00;99.90;;;;;;5054740;28;20104;-89
2021/09/09 06:49:05;;;;;;;10.18;5.57;;;19.00;99.90;;;;;;5053126;28;20025;-89
2021/09/09 06:51:32;;;;;;;14.07;6.30;;;19.20;99.90;;;;;;5052937;28;20032;-90
2021/09/09 06:53:57;;;;;;;6.68;5.40;;;19.20;99.90;;;;;;5052697;28;20044;-89
2021/09/09 06:56:23;;;;;;;11.88;6.00;;;19.30;99.90;;;;;;5052974;28;20025;-90
2021/09/09 06:58:49;;;;;;;9.25;5.72;;;19.30;99.90;;;;;;5053002;28;20021;-89
2021/09/09 07:01:15;;;;;;;11.75;6.13;;;19.30;99.90;;;;;;5055890;28;20424;-90
2021/09/09 07:03:40;;;;;;;8.48;5.82;;;19.30;99.90;;;;;;5052897;28;20048;-89
2021/09/09 07:06:06;;;;;;;8.38;5.80;;;19.50;99.90;;;;;;5054092;28;20032;-89
2021/09/09 07:08:32;;;;;;;11.70;6.07;;;19.60;99.90;;;;;;5052839;28;20393;-89
2021/09/09 07:10:57;;;;;;;7.82;5.70;;;19.70;99.90;;;;;;5052880;28;20392;-89
2021/09/09 07:13:23;;;;;;;8.27;5.78;;;19.90;99.90;;;;;;5054145;28;20583;-89
2021/09/09 07:15:49;;;;;;;8.55;5.20;;;20.30;99.90;;;;;;5052935;28;20029;-90
2021/09/09 07:18:15;;;;;;;8.48;5.43;;;20.40;99.90;;;;;;5053725;28;20389;-90
2021/09/09 07:20:41;;;;;;;9.05;5.75;;;20.50;99.90;;;;;;5053976;28;20024;-90
2021/09/09 07:23:06;;;;;;;8.13;5.32;;;20.60;99.90;;;;;;5052619;28;20021;-90
2021/09/09 07:25:32;;;;;;;9.35;5.13;;;20.60;99.90;;;;;;5052315;28;20106;-90
2021/09/09 07:27:58;;;;;;;8.93;5.30;;;20.70;99.90;;;;;;5052476;28;20031;-91
2021/09/09 07:30:23;;;;;;;9.07;5.70;;;20.70;99.90;;;;;;5052450;28;20028;-89
2021/09/09 07:32:49;;;;;;;7.28;5.30;;;20.60;99.90;;;;;;5052480;28;20032;-90
2021/09/09 07:35:15;;;;;;;11.63;5.70;;;20.60;99.90;;;;;;5052369;28;20112;-89
2021/09/09 07:37:41;;;;;;;7.18;5.53;;;20.70;99.90;;;;;;5052386;28;20017;-89
2021/09/09 07:40:07;;;;;;;11.20;5.70;;;20.70;99.90;;;;;;5052306;28;20491;-89
2021/09/09 07:42:33;;;;;;;10.35;5.63;;;20.80;99.90;;;;;;5053900;28;20021;-90
2021/09/09 07:44:59;;;;;;;10.50;5.07;;;21.00;99.90;;;;;;5052468;28;20053;-90
2021/09/09 07:47:25;;;;;;;14.48;5.80;;;21.10;99.90;;;;;;5052195;28;20032;-90
2021/09/09 07:49:51;;;;;;;12.95;5.60;;;21.30;99.90;;;;;;5053331;28;20485;-89
2021/09/09 07:52:16;;;;;;;17.20;5.82;;;21.40;99.90;;;;;;5051590;28;20052;-87
2021/09/09 07:54:42;;;;;;;16.10;5.82;;;21.40;99.90;;;;;;5033332;28;20033;-90
2021/09/09 07:57:08;;;;;;;7.57;5.45;;;21.50;99.90;;;;;;5015641;28;20079;-89
2021/09/09 07:59:34;;;;;;;22.67;5.47;;;21.60;99.90;;;;;;5015879;28;20090;-93
2021/09/09 08:02:00;;;;;;;6.68;5.13;;;21.70;99.90;;;;;;5016113;28;20029;-90
2021/09/09 08:04:26;;;;;;;10.48;5.38;;;21.70;99.90;;;;;;5015781;28;20029;-89
2021/09/09 08:06:51;;;;;;;8.70;5.25;;;21.80;99.90;;;;;;5015773;28;20026;-90
2021/09/09 08:09:17;;;;;;;9.43;5.75;;;22.00;99.90;;;;;;5015862;28;20069;-90
2021/09/09 08:11:43;;;;;;;13.48;5.63;;;22.10;99.90;;;;;;5015898;28;20465;-90
2021/09/09 08:14:08;;;;;;;10.07;5.10;;;22.20;99.90;;;;;;5016484;28;20054;-90
2021/09/09 08:16:34;;;;;;;8.38;5.65;;;22.30;99.90;;;;;;5035410;28;20021;-89
2021/09/09 08:19:00;;;;;;;7.70;5.22;;;22.40;99.90;;;;;;5017775;28;20041;-88
2021/09/09 08:21:26;;;;;;;10.10;5.53;;;22.60;99.90;;;;;;5016273;28;20032;-88
2021/09/09 08:23:51;;;;;;;8.85;4.95;;;22.70;99.90;;;;;;5015561;28;20095;-87
2021/09/09 08:26:17;;;;;;;7.22;5.10;;;22.80;99.90;;;;;;5015257;28;20061;-87
2021/09/09 08:28:44;;;;;;;7.65;4.60;;;22.90;99.90;;;;;;5015148;28;20030;-87
2021/09/09 08:31:09;;;;;;;10.68;4.45;;;23.20;99.90;;;;;;5033617;28;20025;-87
2021/09/09 08:33:35;;;;;;;7.18;3.90;;;23.30;99.90;;;;;;5016074;28;20030;-90
2021/09/09 08:36:05;;;;;;;6.38;3.65;;;23.40;99.90;;;;;;5015544;28;20120;-89
2021/09/09 08:38:31;;;;;;;8.13;4.15;;;23.40;99.90;;;;;;5015462;28;20112;-90
2021/09/09 08:41:00;;;;;;;7.78;4.10;;;23.50;99.90;;;;;;5033063;28;20049;-91
2021/09/09 08:43:25;;;;;;;7.97;3.75;;;23.40;99.90;;;;;;5016308;28;20021;-90
2021/09/09 08:45:53;;;;;;;8.57;4.05;;;23.50;99.90;;;;;;5015522;28;20037;-90
2021/09/09 08:48:19;;;;;;;9.57;4.03;;;23.30;99.90;;;;;;5015288;28;20025;-90
2021/09/09 08:50:45;;;;;;;4.80;3.80;;;23.60;99.90;;;;;;5033302;28;20025;-90
2021/09/09 08:53:14;;;;;;;9.45;4.10;;;23.60;99.90;;;;;;5027548;28;20084;-91
2021/09/09 08:55:40;;;;;;;6.47;3.67;;;23.70;99.90;;;;;;5051860;28;20017;-90
2021/09/09 08:58:06;;;;;;;5.15;3.83;;;23.80;99.90;;;;;;5051918;28;20064;-90
2021/09/09 09:00:33;;;;;;;7.45;4.00;;;23.80;99.90;;;;;;5054096;28;20414;-90
2021/09/09 09:02:59;;;;;;;6.32;3.95;;;23.70;99.90;;;;;;5039373;28;20488;-91
2021/09/09 09:08:51;;;;;;;9.57;3.72;;;24.00;99.90;;;;;;5056937;28;20106;-91
2021/09/09 09:11:28;;;;;;;7.53;3.95;;;24.40;99.90;;;;;;5055878;28;20028;-89
2021/09/09 09:13:56;;;;;;;7.18;3.60;;;24.30;99.90;;;;;;5053078;28;20404;-91
2021/09/09 09:16:22;;;;;;;6.00;3.60;;;24.40;99.90;;;;;;5056696;28;20040;-91
2021/09/09 09:18:48;;;;;;;4.18;3.65;;;24.60;99.90;;;;;;5055368;28;20476;-91
2021/09/09 09:21:15;;;;;;;12.05;3.53;;;24.80;99.90;;;;;;5055371;28;20502;-90
2021/09/09 09:23:48;;;;;;;8.80;3.60;;;25.00;99.90;;;;;;5056596;28;20616;-90
2021/09/09 09:26:14;;;;;;;5.97;3.60;;;25.40;99.90;;;;;;5056721;28;20033;-91
2021/09/09 09:28:46;;;;;;;8.55;3.70;;;25.30;99.90;;;;;;5055348;28;20397;-92
2021/09/09 09:31:13;;;;;;;4.88;3.55;;;25.30;99.90;;;;;;5056485;28;20039;-92
2021/09/09 09:33:43;;;;;;;6.85;3.47;;;25.50;99.90;;;;;;5054925;28;20021;-91
2021/09/09 09:36:24;;;;;;;5.75;3.88;;;25.50;99.90;;;;;;5054907;28;20025;-91
2021/09/09 09:38:54;;;;;;;6.60;3.67;;;25.00;99.90;;;;;;5055493;28;20075;-91
2021/09/09 09:41:23;;;;;;;4.40;3.38;;;25.30;99.90;;;;;;5056281;28;20045;-93
2021/09/09 09:43:59;;;;;;;6.85;3.80;;;25.60;99.90;;;;;;5055108;28;20508;-90
2021/09/09 09:46:29;;;;;;;9.32;3.70;;;25.80;99.90;;;;;;5054903;28;20049;-92
2021/09/09 09:48:55;;;;;;;9.05;3.55;;;26.10;99.90;;;;;;5054664;28;20551;-91
2021/09/09 09:51:41;;;;;;;5.90;3.17;;;26.30;99.90;;;;;;5055060;28;20029;-90
2021/09/09 09:54:12;;;;;;;8.13;3.35;;;26.70;99.90;;;;;;5054756;28;20099;-92
2021/09/09 09:56:39;;;;;;;7.88;3.60;;;26.80;99.90;;;;;;5054592;28;20033;-90
2021/09/09 09:59:05;;;;;;;8.98;3.53;;;26.80;99.90;;;;;;5054646;28;20043;-92
2021/09/09 10:01:31;;;;;;;6.47;3.22;;;27.20;99.80;;;;;;5054726;28;20021;-92
2021/09/09 10:04:01;;;;;;;8.10;3.78;;;27.00;99.80;;;;;;5054913;28;20434;-92
2021/09/09 10:06:28;;;;;;;10.32;3.45;;;27.20;99.50;;;;;;5055547;28;20028;-92
2021/09/09 10:08:54;;;;;;;5.53;3.20;;;27.10;99.90;;;;;;5054795;28;20032;-92
2021/09/09 10:11:20;;;;;;;5.43;3.03;;;26.20;99.90;;;;;;5055721;28;20021;-92
2021/09/09 10:13:47;;;;;;;5.38;3.47;;;25.90;99.90;;;;;;5058004;28;20029;-89
2021/09/09 10:16:16;;;;;;;7.38;2.97;;;25.80;99.90;;;;;;5056864;28;20052;-88
2021/09/09 10:18:43;;;;;;;5.10;3.22;;;25.30;99.90;;;;;;5057980;28;20038;-91
2021/09/09 10:21:09;;;;;;;6.85;3.10;;;25.20;99.90;;;;;;5055233;28;20115;-91
2021/09/09 10:23:34;;;;;;;5.07;2.97;;;25.10;99.90;;;;;;5054660;28;20029;-91
2021/09/09 10:26:02;;;;;;;7.78;3.33;;;24.90;99.90;;;;;;5054288;28;20036;-89
2021/09/09 10:28:43;;;;;;;7.55;3.22;;;25.00;99.90;;;;;;5054283;28;20021;-90
2021/09/09 10:31:21;;;;;;;8.23;3.13;;;25.20;99.90;;;;;;5054619;28;20021;-91
2021/09/09 10:33:48;;;;;;;5.13;3.13;;;24.70;99.90;;;;;;5054384;28;20113;-91
2021/09/09 10:36:44;;;;;;;12.43;3.22;;;24.70;99.90;;;;;;5055364;28;20013;-89
2021/09/09 10:39:21;;;;;;;5.93;3.30;;;24.90;99.90;;;;;;5054076;28;20503;-91
2021/09/09 10:41:48;;;;;;;5.40;2.97;;;24.90;99.90;;;;;;5055451;28;20021;-90
2021/09/09 10:44:14;;;;;;;7.53;3.67;;;24.90;99.90;;;;;;5053993;28;20029;-91
2021/09/09 10:46:42;;;;;;;6.05;3.20;;;25.20;99.90;;;;;;5054007;28;20057;-88
2021/09/09 10:49:15;;;;;;;4.93;2.50;;;26.10;99.90;;;;;;5054690;28;20025;-93
2021/09/09 10:52:04;;;;;;;10.52;3.20;;;26.70;99.90;;;;;;5053839;28;20079;-92
2021/09/09 10:54:31;;;;;;;5.82;2.83;;;27.40;99.40;;;;;;5053380;28;20404;-90
2021/09/09 10:57:13;;;;;;;4.13;3.10;;;27.80;98.80;;;;;;5053848;28;20428;-91
2021/09/09 10:59:47;;;;;;;7.25;3.17;;;27.00;99.40;;;;;;5055094;28;20045;-91
2021/09/09 11:02:15;;;;;;;6.90;2.78;;;26.70;98.70;;;;;;5053835;28;20035;-92
2021/09/09 11:04:41;;;;;;;5.47;3.00;;;27.10;99.10;;;;;;5053663;28;20082;-92
2021/09/09 11:07:27;;;;;;;4.32;3.00;;;27.00;98.60;;;;;;5054291;28;20032;-90
2021/09/09 11:10:09;;;;;;;5.18;2.70;;;27.50;98.10;;;;;;5053405;28;20029;-90
2021/09/09 11:12:40;;;;;;;5.25;3.13;;;28.40;96.90;;;;;;5053720;28;20032;-92
2021/09/09 11:15:13;;;;;;;5.68;3.20;;;28.20;95.90;;;;;;5053324;28;20025;-93
2021/09/09 11:17:39;;;;;;;4.80;3.10;;;28.90;96.20;;;;;;5053580;28;20393;-94
2021/09/09 11:20:07;;;;;;;6.03;2.95;;;29.20;95.30;;;;;;5053506;28;20021;-93
2021/09/09 11:22:34;;;;;;;4.00;2.83;;;29.20;95.00;;;;;;5053530;28;20116;-92
2021/09/09 11:25:00;;;;;;;7.55;2.90;;;28.70;94.60;;;;;;5053279;28;20059;-92
2021/09/09 11:27:33;;;;;;;6.22;3.55;;;27.70;95.30;;;;;;5053422;28;20029;-91
2021/09/09 11:30:00;;;;;;;4.85;3.40;;;27.70;95.40;;;;;;5054571;28;20029;-92
2021/09/09 11:32:30;;;;;;;5.57;3.15;;;27.60;95.80;;;;;;5054413;28;20025;-92
2021/09/09 11:35:09;;;;;;;5.20;3.00;;;27.60;95.70;;;;;;5053071;28;20032;-91
2021/09/09 11:37:45;;;;;;;7.72;3.05;;;27.80;96.10;;;;;;5054018;28;20369;-91
2021/09/09 11:40:12;;;;;;;6.30;2.88;;;27.90;95.50;;;;;;5053104;28;20123;-91
2021/09/09 11:42:38;;;;;;;5.35;2.80;;;27.60;95.10;;;;;;5052974;28;20025;-93
2021/09/09 11:45:04;;;;;;;8.48;3.30;;;27.40;95.60;;;;;;5052838;28;20567;-92
2021/09/09 11:47:30;;;;;;;5.15;3.00;;;27.30;95.80;;;;;;5052985;28;20056;-92
2021/09/09 11:50:04;;;;;;;7.38;3.03;;;27.70;96.10;;;;;;5052550;28;20117;-90
2021/09/09 11:52:30;;;;;;;8.38;3.22;;;28.60;94.70;;;;;;5050269;28;20115;-93
2021/09/09 11:54:56;;;;;;;12.32;3.45;;;29.50;93.90;;;;;;5016259;28;20171;-92
2021/09/09 11:57:22;;;;;;;3.55;2.92;;;28.40;93.70;;;;;;5033930;28;20026;-92
2021/09/09 11:59:58;;;;;;;6.60;3.03;;;28.10;93.80;;;;;;5033667;28;20496;-92
2021/09/09 12:02:28;;;;;;;13.60;3.40;;;28.00;94.60;;;;;;5016072;28;20017;-92
2021/09/09 12:04:56;;;;;;;5.65;3.20;;;28.00;94.10;;;;;;5016221;28;20112;-92
2021/09/09 12:07:27;;;;;;;5.18;3.03;;;28.10;94.70;;;;;;5016242;28;20483;-92
2021/09/09 12:10:01;;;;;;;5.43;2.80;;;28.60;93.80;;;;;;5015808;28;20021;-91
2021/09/09 12:12:30;;;;;;;5.73;3.10;;;29.90;92.40;;;;;;5016050;28;20025;-93
2021/09/09 12:15:07;;;;;;;8.18;3.38;;;30.30;93.60;;;;;;5017701;28;20284;-92
2021/09/09 12:17:33;;;;;;;5.03;3.30;;;28.80;92.40;;;;;;5041456;28;20022;-92
2021/09/09 12:20:19;;;;;;;4.75;2.80;;;28.10;93.50;;;;;;5026479;28;20025;-93
2021/09/09 12:22:51;;;;;;;6.95;3.20;;;28.00;94.20;;;;;;5037206;28;20029;-93
2021/09/09 12:25:37;;;;;;;8.48;3.33;;;28.30;94.10;;;;;;5018076;28;20126;-93
2021/09/09 12:28:06;;;;;;;7.63;3.30;;;28.50;92.90;;;;;;5016728;28;20032;-93
2021/09/09 12:30:53;;;;;;;7.88;3.20;;;28.10;94.00;;;;;;5016234;28;20022;-90
2021/09/09 12:33:27;;;;;;;4.47;3.00;;;29.00;92.80;;;;;;5016059;28;20029;-92
2021/09/09 12:35:59;;;;;;;;;;;28.90;92.20;;;;;;5017934;28;20112;-92
2021/09/09 12:38:34;;;;;;;4.28;2.97;;;28.60;92.50;;;;;;5037305;28;19906;-92
2021/09/09 12:41:00;;;;;;;4.85;2.72;;;29.40;91.70;;;;;;5019699;28;20029;-93
2021/09/09 12:43:34;;;;;;;5.78;2.88;;;28.90;91.60;;;;;;5019494;28;20116;-92
2021/09/09 12:46:01;;;;;;;4.28;2.92;;;30.30;91.60;;;;;;5020305;28;20030;-89